sensor_id;sensor_type;location;lat;lon;timestamp;pressure;altitude;pressure_sealevel;temperature;humidity
16793;BME280;8513;42.662;23.350;2022-10-31T00:01:54;95379.63;;;15.54;41.98
16793;BME280;8513;42.662;23.350;2022-10-31T00:04:20;95387.41;;;15.47;42.10
16793;BME280;8513;42.662;23.350;2022-10-31T00:06:45;95379.13;;;15.50;42.22
16793;BME280;8513;42.662;23.350;2022-10-31T00:09:11;95375.19;;;15.46;42.10
16793;BME280;8513;42.662;23.350;2022-10-31T00:11:36;95381.00;;;15.41;42.49
16793;BME280;8513;42.662;23.350;2022-10-31T00:14:02;95378.84;;;15.37;42.82
16793;BME280;8513;42.662;23.350;2022-10-31T00:16:29;95377.69;;;15.39;42.74
16793;BME280;8513;42.662;23.350;2022-10-31T00:18:57;95370.75;;;15.38;42.74
16793;BME280;8513;42.662;23.350;2022-10-31T00:21:23;95367.56;;;15.43;42.92
16793;BME280;8513;42.662;23.350;2022-10-31T00:23:49;95377.06;;;15.37;43.21
16793;BME280;8513;42.662;23.350;2022-10-31T00:26:15;95378.38;;;15.33;42.97
16793;BME280;8513;42.662;23.350;2022-10-31T00:28:40;95371.25;;;15.34;43.28
16793;BME280;8513;42.662;23.350;2022-10-31T00:31:08;95377.41;;;15.34;43.09
16793;BME280;8513;42.662;23.350;2022-10-31T00:33:35;95385.19;;;15.28;43.13
16793;BME280;8513;42.662;23.350;2022-10-31T00:36:03;95376.06;;;15.30;43.45
16793;BME280;8513;42.662;23.350;2022-10-31T00:38:29;95382.06;;;15.24;43.46
16793;BME280;8513;42.662;23.350;2022-10-31T00:40:55;95376.22;;;15.29;43.03
16793;BME280;8513;42.662;23.350;2022-10-31T00:43:20;95377.41;;;15.34;43.46
16793;BME280;8513;42.662;23.350;2022-10-31T00:45:46;95374.59;;;15.28;43.47
16793;BME280;8513;42.662;23.350;2022-10-31T00:48:11;95368.28;;;15.29;43.55
16793;BME280;8513;42.662;23.350;2022-10-31T00:50:37;95370.13;;;15.28;43.43
16793;BME280;8513;42.662;23.350;2022-10-31T00:53:03;95370.00;;;15.21;43.86
16793;BME280;8513;42.662;23.350;2022-10-31T00:55:29;95373.00;;;15.18;43.93
16793;BME280;8513;42.662;23.350;2022-10-31T00:57:54;95377.31;;;15.11;44.05
16793;BME280;8513;42.662;23.350;2022-10-31T01:00:20;95386.03;;;15.20;43.65
16793;BME280;8513;42.662;23.350;2022-10-31T01:02:45;95367.03;;;15.16;43.74
16793;BME280;8513;42.662;23.350;2022-10-31T01:05:11;95374.78;;;15.18;44.07
16793;BME280;8513;42.662;23.350;2022-10-31T01:07:39;95367.38;;;15.13;43.97
16793;BME280;8513;42.662;23.350;2022-10-31T01:10:06;95376.31;;;15.12;44.49
16793;BME280;8513;42.662;23.350;2022-10-31T01:12:43;95375.66;;;15.02;44.58
16793;BME280;8513;42.662;23.350;2022-10-31T01:15:11;95381.94;;;15.09;44.23
16793;BME280;8513;42.662;23.350;2022-10-31T01:17:37;95383.09;;;15.07;44.29
16793;BME280;8513;42.662;23.350;2022-10-31T01:20:04;95390.72;;;15.02;44.61
16793;BME280;8513;42.662;23.350;2022-10-31T01:22:31;95395.72;;;14.96;44.74
16793;BME280;8513;42.662;23.350;2022-10-31T01:24:56;95389.47;;;14.81;45.31
16793;BME280;8513;42.662;23.350;2022-10-31T01:27:22;95390.78;;;14.85;45.26
16793;BME280;8513;42.662;23.350;2022-10-31T01:29:47;95391.75;;;14.92;44.90
16793;BME280;8513;42.662;23.350;2022-10-31T01:32:13;95401.16;;;15.03;44.82
16793;BME280;8513;42.662;23.350;2022-10-31T01:34:38;95396.19;;;15.08;44.68
16793;BME280;8513;42.662;23.350;2022-10-31T01:37:03;95405.31;;;15.06;44.78
16793;BME280;8513;42.662;23.350;2022-10-31T01:39:29;95400.38;;;14.94;45.19
16793;BME280;8513;42.662;23.350;2022-10-31T01:41:54;95395.69;;;15.05;45.00
16793;BME280;8513;42.662;23.350;2022-10-31T01:49:34;95401.72;;;14.74;45.91
16793;BME280;8513;42.662;23.350;2022-10-31T01:52:19;95408.03;;;14.73;45.98
16793;BME280;8513;42.662;23.350;2022-10-31T01:54:52;95406.19;;;14.73;45.99
16793;BME280;8513;42.662;23.350;2022-10-31T01:57:19;95415.63;;;14.76;45.74
16793;BME280;8513;42.662;23.350;2022-10-31T01:59:48;95398.41;;;14.47;46.16
16793;BME280;8513;42.662;23.350;2022-10-31T02:02:16;95395.09;;;14.45;46.43
16793;BME280;8513;42.662;23.350;2022-10-31T02:04:42;95388.16;;;14.44;46.43
16793;BME280;8513;42.662;23.350;2022-10-31T02:07:23;95391.78;;;14.43;46.70
16793;BME280;8513;42.662;23.350;2022-10-31T02:09:50;95390.47;;;14.47;46.72
16793;BME280;8513;42.662;23.350;2022-10-31T02:12:17;95389.00;;;14.45;46.89
16793;BME280;8513;42.662;23.350;2022-10-31T02:14:43;95383.03;;;14.34;47.09
16793;BME280;8513;42.662;23.350;2022-10-31T02:17:08;95380.72;;;14.31;47.51
16793;BME280;8513;42.662;23.350;2022-10-31T02:19:43;95383.69;;;14.45;47.07
16793;BME280;8513;42.662;23.350;2022-10-31T02:22:27;95389.00;;;14.45;46.93
16793;BME280;8513;42.662;23.350;2022-10-31T02:28:11;95403.69;;;14.47;46.87
16793;BME280;8513;42.662;23.350;2022-10-31T02:33:45;95408.00;;;14.32;47.59
16793;BME280;8513;42.662;23.350;2022-10-31T02:36:53;95411.66;;;14.39;47.49
16793;BME280;8513;42.662;23.350;2022-10-31T02:39:25;95413.28;;;14.32;47.57
16793;BME280;8513;42.662;23.350;2022-10-31T02:42:14;95424.19;;;14.29;47.72
16793;BME280;8513;42.662;23.350;2022-10-31T02:44:54;95424.88;;;14.31;47.75
16793;BME280;8513;42.662;23.350;2022-10-31T02:47:27;95422.88;;;14.17;48.17
16793;BME280;8513;42.662;23.350;2022-10-31T02:50:19;95430.50;;;14.20;48.00
16793;BME280;8513;42.662;23.350;2022-10-31T02:52:51;95426.84;;;14.21;48.18
16793;BME280;8513;42.662;23.350;2022-10-31T02:57:54;95427.31;;;14.00;48.79
16793;BME280;8513;42.662;23.350;2022-10-31T03:00:22;95430.13;;;13.98;48.97
16793;BME280;8513;42.662;23.350;2022-10-31T03:03:11;95427.31;;;14.00;48.96
16793;BME280;8513;42.662;23.350;2022-10-31T03:11:07;95432.41;;;13.77;49.67
16793;BME280;8513;42.662;23.350;2022-10-31T03:13:49;95429.56;;;13.70;50.02
16793;BME280;8513;42.662;23.350;2022-10-31T03:18:59;95419.19;;;13.85;49.51
16793;BME280;8513;42.662;23.350;2022-10-31T03:21:31;95422.44;;;13.71;49.66
16793;BME280;8513;42.662;23.350;2022-10-31T03:23:59;95424.75;;;13.65;49.86
16793;BME280;8513;42.662;23.350;2022-10-31T03:26:25;95425.09;;;13.71;49.97
16793;BME280;8513;42.662;23.350;2022-10-31T03:29:02;95428.88;;;13.68;49.99
16793;BME280;8513;42.662;23.350;2022-10-31T03:31:41;95433.34;;;13.67;50.00
16793;BME280;8513;42.662;23.350;2022-10-31T03:34:09;95434.03;;;13.70;50.02
16793;BME280;8513;42.662;23.350;2022-10-31T03:36:37;95439.66;;;13.75;50.09
16793;BME280;8513;42.662;23.350;2022-10-31T03:39:05;95436.53;;;13.79;49.93
16793;BME280;8513;42.662;23.350;2022-10-31T03:41:37;95444.97;;;13.91;49.42
16793;BME280;8513;42.662;23.350;2022-10-31T03:44:11;95425.63;;;13.82;49.57
16793;BME280;8513;42.662;23.350;2022-10-31T03:46:39;95444.97;;;13.83;49.92
16793;BME280;8513;42.662;23.350;2022-10-31T03:49:05;95446.09;;;13.80;50.21
16793;BME280;8513;42.662;23.350;2022-10-31T03:51:49;95451.88;;;13.76;50.29
16793;BME280;8513;42.662;23.350;2022-10-31T03:54:38;95449.38;;;13.66;50.66
16793;BME280;8513;42.662;23.350;2022-10-31T03:57:27;95449.19;;;13.67;50.70
16793;BME280;8513;42.662;23.350;2022-10-31T04:00:10;95444.03;;;13.58;51.16
16793;BME280;8513;42.662;23.350;2022-10-31T04:02:41;95454.75;;;13.48;51.15
16793;BME280;8513;42.662;23.350;2022-10-31T04:05:08;95459.72;;;13.51;51.06
16793;BME280;8513;42.662;23.350;2022-10-31T04:07:41;95461.00;;;13.47;51.11
16793;BME280;8513;42.662;23.350;2022-10-31T04:10:12;95462.97;;;13.37;51.46
16793;BME280;8513;42.662;23.350;2022-10-31T04:12:39;95467.88;;;13.32;51.70
16793;BME280;8513;42.662;23.350;2022-10-31T04:15:08;95463.25;;;13.34;51.74
16793;BME280;8513;42.662;23.350;2022-10-31T04:17:38;95471.66;;;13.29;51.95
16793;BME280;8513;42.662;23.350;2022-10-31T04:20:06;95473.09;;;13.23;51.93
16793;BME280;8513;42.662;23.350;2022-10-31T04:22:31;95478.22;;;13.25;52.02
16793;BME280;8513;42.662;23.350;2022-10-31T04:24:57;95461.28;;;13.36;51.91
16793;BME280;8513;42.662;23.350;2022-10-31T04:27:22;95474.03;;;13.40;51.91
16793;BME280;8513;42.662;23.350;2022-10-31T04:29:48;95471.09;;;13.52;51.59
16793;BME280;8513;42.662;23.350;2022-10-31T04:32:13;95482.75;;;13.33;51.94
16793;BME280;8513;42.662;23.350;2022-10-31T04:34:38;95471.84;;;13.36;51.85
16793;BME280;8513;42.662;23.350;2022-10-31T04:37:04;95472.56;;;13.46;51.52
16793;BME280;8513;42.662;23.350;2022-10-31T04:39:29;95470.59;;;13.48;51.65
16793;BME280;8513;42.662;23.350;2022-10-31T04:41:55;95478.66;;;13.46;51.50
16793;BME280;8513;42.662;23.350;2022-10-31T04:44:20;95485.09;;;13.44;51.66
16793;BME280;8513;42.662;23.350;2022-10-31T04:46:46;95471.56;;;13.47;51.50
16793;BME280;8513;42.662;23.350;2022-10-31T04:49:11;95474.06;;;13.49;51.35
16793;BME280;8513;42.662;23.350;2022-10-31T04:51:37;95484.50;;;13.50;51.55
16793;BME280;8513;42.662;23.350;2022-10-31T04:54:02;95491.13;;;13.28;52.13
16793;BME280;8513;42.662;23.350;2022-10-31T04:56:28;95488.03;;;13.33;52.37
16793;BME280;8513;42.662;23.350;2022-10-31T04:58:53;95494.13;;;13.33;52.35
16793;BME280;8513;42.662;23.350;2022-10-31T05:01:19;95489.66;;;13.34;52.07
16793;BME280;8513;42.662;23.350;2022-10-31T05:03:44;95493.56;;;13.48;51.79
16793;BME280;8513;42.662;23.350;2022-10-31T05:06:10;95495.34;;;13.47;52.02
16793;BME280;8513;42.662;23.350;2022-10-31T05:08:35;95492.06;;;13.45;52.18
16793;BME280;8513;42.662;23.350;2022-10-31T05:11:04;95502.97;;;13.50;51.89
16793;BME280;8513;42.662;23.350;2022-10-31T05:13:32;95501.47;;;13.48;51.77
16793;BME280;8513;42.662;23.350;2022-10-31T05:15:57;95494.56;;;13.55;52.11
16793;BME280;8513;42.662;23.350;2022-10-31T05:18:23;95505.31;;;13.53;52.12
16793;BME280;8513;42.662;23.350;2022-10-31T05:20:48;95505.97;;;13.55;51.70
16793;BME280;8513;42.662;23.350;2022-10-31T05:23:14;95507.44;;;13.58;51.76
16793;BME280;8513;42.662;23.350;2022-10-31T05:25:39;95518.22;;;13.64;51.84
16793;BME280;8513;42.662;23.350;2022-10-31T05:28:05;95517.41;;;13.64;51.99
16793;BME280;8513;42.662;23.350;2022-10-31T05:30:31;95518.78;;;13.42;52.54
16793;BME280;8513;42.662;23.350;2022-10-31T05:32:57;95519.72;;;13.33;53.05
16793;BME280;8513;42.662;23.350;2022-10-31T05:35:28;95524.19;;;13.32;52.86
16793;BME280;8513;42.662;23.350;2022-10-31T05:37:54;95521.28;;;13.25;53.15
16793;BME280;8513;42.662;23.350;2022-10-31T05:40:20;95519.28;;;13.19;53.49
16793;BME280;8513;42.662;23.350;2022-10-31T05:42:47;95518.00;;;13.23;53.45
16793;BME280;8513;42.662;23.350;2022-10-31T05:45:14;95526.22;;;13.20;53.43
16793;BME280;8513;42.662;23.350;2022-10-31T05:47:41;95526.81;;;13.14;54.00
16793;BME280;8513;42.662;23.350;2022-10-31T05:50:08;95524.50;;;13.11;54.28
16793;BME280;8513;42.662;23.350;2022-10-31T05:52:34;95528.59;;;13.06;54.38
16793;BME280;8513;42.662;23.350;2022-10-31T05:54:59;95526.16;;;13.12;54.29
16793;BME280;8513;42.662;23.350;2022-10-31T05:57:25;95521.53;;;13.14;54.13
16793;BME280;8513;42.662;23.350;2022-10-31T05:59:50;95535.06;;;13.11;54.54
16793;BME280;8513;42.662;23.350;2022-10-31T06:02:19;95535.78;;;13.21;53.97
16793;BME280;8513;42.662;23.350;2022-10-31T06:04:45;95540.47;;;13.28;54.08
16793;BME280;8513;42.662;23.350;2022-10-31T06:07:10;95545.38;;;13.22;54.35
16793;BME280;8513;42.662;23.350;2022-10-31T06:09:35;95556.38;;;13.36;53.91
16793;BME280;8513;42.662;23.350;2022-10-31T06:12:01;95542.84;;;13.39;53.66
16793;BME280;8513;42.662;23.350;2022-10-31T06:14:26;95552.81;;;13.45;53.25
16793;BME280;8513;42.662;23.350;2022-10-31T06:16:52;95551.50;;;13.49;53.19
16793;BME280;8513;42.662;23.350;2022-10-31T06:19:18;95552.13;;;13.69;52.81
16793;BME280;8513;42.662;23.350;2022-10-31T06:21:44;95554.75;;;13.69;52.76
16793;BME280;8513;42.662;23.350;2022-10-31T06:24:09;95558.88;;;13.63;53.11
16793;BME280;8513;42.662;23.350;2022-10-31T06:26:35;95571.75;;;13.40;54.02
16793;BME280;8513;42.662;23.350;2022-10-31T06:29:00;95572.81;;;13.82;52.77
16793;BME280;8513;42.662;23.350;2022-10-31T06:31:25;95579.16;;;13.97;52.39
16793;BME280;8513;42.662;23.350;2022-10-31T06:33:51;95578.63;;;13.85;52.80
16793;BME280;8513;42.662;23.350;2022-10-31T06:36:16;95581.31;;;13.94;52.42
16793;BME280;8513;42.662;23.350;2022-10-31T06:38:42;95584.41;;;13.89;52.75
16793;BME280;8513;42.662;23.350;2022-10-31T06:41:08;95575.41;;;13.74;53.24
16793;BME280;8513;42.662;23.350;2022-10-31T06:43:34;95581.19;;;13.69;54.17
16793;BME280;8513;42.662;23.350;2022-10-31T06:46:03;95588.38;;;13.85;53.60
16793;BME280;8513;42.662;23.350;2022-10-31T06:48:29;95580.16;;;13.62;54.33
16793;BME280;8513;42.662;23.350;2022-10-31T06:50:59;95583.66;;;14.05;52.41
16793;BME280;8513;42.662;23.350;2022-10-31T06:53:25;95580.41;;;14.19;52.12
16793;BME280;8513;42.662;23.350;2022-10-31T06:55:51;95582.03;;;14.12;52.40
16793;BME280;8513;42.662;23.350;2022-10-31T06:58:16;95585.41;;;14.30;51.75
16793;BME280;8513;42.662;23.350;2022-10-31T07:00:41;95577.81;;;14.27;51.64
16793;BME280;8513;42.662;23.350;2022-10-31T07:03:10;95579.63;;;14.35;52.07
16793;BME280;8513;42.662;23.350;2022-10-31T07:05:36;95586.59;;;14.36;52.25
16793;BME280;8513;42.662;23.350;2022-10-31T07:08:06;95583.81;;;14.54;51.75
16793;BME280;8513;42.662;23.350;2022-10-31T07:10:34;95583.53;;;14.57;51.58
16793;BME280;8513;42.662;23.350;2022-10-31T07:13:03;95577.09;;;14.60;51.58
16793;BME280;8513;42.662;23.350;2022-10-31T07:15:32;95577.09;;;14.68;51.48
16793;BME280;8513;42.662;23.350;2022-10-31T07:18:06;95581.72;;;14.66;51.46
16793;BME280;8513;42.662;23.350;2022-10-31T07:20:32;95573.44;;;14.77;50.83
16793;BME280;8513;42.662;23.350;2022-10-31T07:22:58;95572.97;;;14.82;50.83
16793;BME280;8513;42.662;23.350;2022-10-31T07:25:24;95565.53;;;14.85;50.67
16793;BME280;8513;42.662;23.350;2022-10-31T07:27:49;95556.94;;;14.99;50.34
16793;BME280;8513;42.662;23.350;2022-10-31T07:30:15;95561.91;;;15.03;50.39
16793;BME280;8513;42.662;23.350;2022-10-31T07:32:44;95561.56;;;15.14;50.19
16793;BME280;8513;42.662;23.350;2022-10-31T07:35:15;95565.19;;;15.21;50.21
16793;BME280;8513;42.662;23.350;2022-10-31T07:37:41;95558.91;;;15.22;50.03
16793;BME280;8513;42.662;23.350;2022-10-31T07:40:07;95565.66;;;15.41;49.82
16793;BME280;8513;42.662;23.350;2022-10-31T07:42:43;95562.50;;;15.46;49.90
16793;BME280;8513;42.662;23.350;2022-10-31T07:45:11;95562.19;;;15.40;49.98
16793;BME280;8513;42.662;23.350;2022-10-31T07:47:57;95566.13;;;15.53;49.90
16793;BME280;8513;42.662;23.350;2022-10-31T07:50:26;95564.00;;;15.48;49.84
16793;BME280;8513;42.662;23.350;2022-10-31T07:55:28;95567.13;;;15.52;49.89
16793;BME280;8513;42.662;23.350;2022-10-31T07:58:03;95572.09;;;15.71;49.04
16793;BME280;8513;42.662;23.350;2022-10-31T08:00:29;95567.06;;;15.84;48.60
16793;BME280;8513;42.662;23.350;2022-10-31T08:02:59;95568.59;;;15.79;49.04
16793;BME280;8513;42.662;23.350;2022-10-31T08:05:25;95573.19;;;15.93;48.85
16793;BME280;8513;42.662;23.350;2022-10-31T08:07:50;95566.38;;;15.99;48.59
16793;BME280;8513;42.662;23.350;2022-10-31T08:10:16;95569.34;;;15.96;48.60
16793;BME280;8513;42.662;23.350;2022-10-31T08:12:41;95565.13;;;16.18;48.20
16793;BME280;8513;42.662;23.350;2022-10-31T08:15:07;95565.19;;;16.09;48.25
16793;BME280;8513;42.662;23.350;2022-10-31T08:17:36;95566.13;;;16.17;47.94
16793;BME280;8513;42.662;23.350;2022-10-31T08:20:03;95558.31;;;16.23;47.79
16793;BME280;8513;42.662;23.350;2022-10-31T08:22:29;95566.03;;;16.33;47.46
16793;BME280;8513;42.662;23.350;2022-10-31T08:24:54;95569.22;;;16.28;48.05
16793;BME280;8513;42.662;23.350;2022-10-31T08:27:19;95574.66;;;16.35;47.85
16793;BME280;8513;42.662;23.350;2022-10-31T08:29:45;95562.50;;;16.41;47.60
16793;BME280;8513;42.662;23.350;2022-10-31T08:32:10;95564.97;;;16.50;47.54
16793;BME280;8513;42.662;23.350;2022-10-31T08:34:36;95564.56;;;16.62;47.19
16793;BME280;8513;42.662;23.350;2022-10-31T08:37:01;95555.00;;;16.75;47.05
16793;BME280;8513;42.662;23.350;2022-10-31T08:39:26;95548.22;;;16.73;46.84
16793;BME280;8513;42.662;23.350;2022-10-31T08:41:52;95560.13;;;16.85;46.83
16793;BME280;8513;42.662;23.350;2022-10-31T08:44:18;95551.13;;;17.09;46.29
16793;BME280;8513;42.662;23.350;2022-10-31T08:46:44;95555.34;;;17.04;45.80
16793;BME280;8513;42.662;23.350;2022-10-31T08:49:09;95559.00;;;17.03;46.11
16793;BME280;8513;42.662;23.350;2022-10-31T08:51:35;95546.84;;;17.08;45.94
16793;BME280;8513;42.662;23.350;2022-10-31T08:54:00;95561.19;;;17.37;45.60
16793;BME280;8513;42.662;23.350;2022-10-31T08:56:25;95557.16;;;17.41;45.49
16793;BME280;8513;42.662;23.350;2022-10-31T08:58:53;95556.25;;;17.49;45.12
16793;BME280;8513;42.662;23.350;2022-10-31T09:01:18;95557.09;;;17.64;44.66
16793;BME280;8513;42.662;23.350;2022-10-31T09:03:44;95561.88;;;17.69;44.62
16793;BME280;8513;42.662;23.350;2022-10-31T09:06:09;95558.78;;;17.80;44.63
16793;BME280;8513;42.662;23.350;2022-10-31T09:08:35;95555.69;;;17.91;44.09
16793;BME280;8513;42.662;23.350;2022-10-31T09:11:02;95553.00;;;18.06;44.08
16793;BME280;8513;42.662;23.350;2022-10-31T09:13:27;95551.16;;;18.21;43.36
16793;BME280;8513;42.662;23.350;2022-10-31T09:15:53;95549.69;;;18.19;43.23
16793;BME280;8513;42.662;23.350;2022-10-31T09:18:20;95546.84;;;18.20;43.43
16793;BME280;8513;42.662;23.350;2022-10-31T09:20:48;95553.25;;;18.26;43.11
16793;BME280;8513;42.662;23.350;2022-10-31T09:23:15;95545.91;;;18.28;43.68
16793;BME280;8513;42.662;23.350;2022-10-31T09:25:42;95543.75;;;18.38;43.73
16793;BME280;8513;42.662;23.350;2022-10-31T09:28:11;95546.28;;;18.61;42.65
16793;BME280;8513;42.662;23.350;2022-10-31T09:30:37;95546.16;;;18.69;42.94
16793;BME280;8513;42.662;23.350;2022-10-31T09:33:12;95547.03;;;18.91;42.09
16793;BME280;8513;42.662;23.350;2022-10-31T09:35:38;95533.66;;;18.85;42.02
16793;BME280;8513;42.662;23.350;2022-10-31T09:38:09;95546.63;;;18.94;41.89
16793;BME280;8513;42.662;23.350;2022-10-31T09:40:39;95545.75;;;19.09;41.47
16793;BME280;8513;42.662;23.350;2022-10-31T09:48:37;95546.22;;;19.41;41.14
16793;BME280;8513;42.662;23.350;2022-10-31T09:51:29;95536.81;;;19.45;40.49
16793;BME280;8513;42.662;23.350;2022-10-31T09:54:16;95537.53;;;19.60;40.65
16793;BME280;8513;42.662;23.350;2022-10-31T09:56:43;95535.22;;;19.78;40.19
16793;BME280;8513;42.662;23.350;2022-10-31T09:59:30;95538.41;;;19.95;39.98
16793;BME280;8513;42.662;23.350;2022-10-31T10:02:00;95534.09;;;20.01;40.15
16793;BME280;8513;42.662;23.350;2022-10-31T10:09:44;95521.50;;;20.30;38.82
16793;BME280;8513;42.662;23.350;2022-10-31T10:26:19;95500.53;;;21.08;37.01
16793;BME280;8513;42.662;23.350;2022-10-31T10:28:58;95500.13;;;21.18;35.89
16793;BME280;8513;42.662;23.350;2022-10-31T10:31:39;95491.88;;;21.26;35.46
16793;BME280;8513;42.662;23.350;2022-10-31T10:34:25;95484.88;;;21.25;36.25
16793;BME280;8513;42.662;23.350;2022-10-31T10:37:03;95481.59;;;21.23;36.34
16793;BME280;8513;42.662;23.350;2022-10-31T10:39:41;95481.19;;;21.52;35.92
16793;BME280;8513;42.662;23.350;2022-10-31T10:42:13;95481.13;;;21.72;34.83
16793;BME280;8513;42.662;23.350;2022-10-31T10:44:59;95466.22;;;21.96;34.78
16793;BME280;8513;42.662;23.350;2022-10-31T10:47:49;95470.16;;;22.00;34.28
16793;BME280;8513;42.662;23.350;2022-10-31T10:50:27;95472.53;;;22.15;33.73
16793;BME280;8513;42.662;23.350;2022-10-31T10:53:02;95472.56;;;22.22;33.92
16793;BME280;8513;42.662;23.350;2022-10-31T10:55:44;95473.75;;;22.26;33.92
16793;BME280;8513;42.662;23.350;2022-10-31T10:58:12;95472.25;;;22.43;33.23
16793;BME280;8513;42.662;23.350;2022-10-31T11:00:45;95474.75;;;22.32;33.17
16793;BME280;8513;42.662;23.350;2022-10-31T11:03:17;95472.69;;;22.40;32.88
16793;BME280;8513;42.662;23.350;2022-10-31T11:05:51;95469.06;;;22.60;32.54
16793;BME280;8513;42.662;23.350;2022-10-31T11:08:35;95460.41;;;22.96;31.82
16793;BME280;8513;42.662;23.350;2022-10-31T11:13:46;95465.56;;;22.91;31.47
16793;BME280;8513;42.662;23.350;2022-10-31T11:18:50;95458.16;;;23.18;31.80
16793;BME280;8513;42.662;23.350;2022-10-31T11:21:28;95452.69;;;23.50;30.65
16793;BME280;8513;42.662;23.350;2022-10-31T11:26:36;95457.81;;;23.76;30.40
16793;BME280;8513;42.662;23.350;2022-10-31T11:29:04;95451.84;;;23.93;30.09
16793;BME280;8513;42.662;23.350;2022-10-31T11:31:32;95448.03;;;24.01;29.57
16793;BME280;8513;42.662;23.350;2022-10-31T11:34:06;95443.38;;;24.26;29.99
16793;BME280;8513;42.662;23.350;2022-10-31T11:36:39;95431.47;;;24.52;28.60
16793;BME280;8513;42.662;23.350;2022-10-31T11:39:18;95431.38;;;25.36;28.02
16793;BME280;8513;42.662;23.350;2022-10-31T11:41:45;95432.94;;;33.01;18.58
16793;BME280;8513;42.662;23.350;2022-10-31T11:44:14;95436.97;;;38.48;12.94
16793;BME280;8513;42.662;23.350;2022-10-31T11:46:44;95437.19;;;41.52;10.49
16793;BME280;8513;42.662;23.350;2022-10-31T11:49:35;95433.47;;;43.16;9.11
16793;BME280;8513;42.662;23.350;2022-10-31T11:52:05;95432.44;;;43.93;8.46
16793;BME280;8513;42.662;23.350;2022-10-31T11:59:53;95432.59;;;45.73;7.07
16793;BME280;8513;42.662;23.350;2022-10-31T12:02:19;95421.13;;;43.98;7.97
16793;BME280;8513;42.662;23.350;2022-10-31T12:04:52;95418.28;;;42.98;8.38
16793;BME280;8513;42.662;23.350;2022-10-31T12:07:22;95412.78;;;39.02;11.33
16793;BME280;8513;42.662;23.350;2022-10-31T12:09:47;95411.59;;;34.24;15.14
16793;BME280;8513;42.662;23.350;2022-10-31T12:17:28;95411.75;;;38.46;11.50
16793;BME280;8513;42.662;23.350;2022-10-31T12:30:36;95407.28;;;40.70;10.04
16793;BME280;8513;42.662;23.350;2022-10-31T12:33:27;95405.44;;;42.65;9.12
16793;BME280;8513;42.662;23.350;2022-10-31T12:44:01;95408.56;;;45.42;6.99
16793;BME280;8513;42.662;23.350;2022-10-31T12:46:41;95410.78;;;43.67;7.97
16793;BME280;8513;42.662;23.350;2022-10-31T12:49:35;95399.19;;;42.56;8.56
16793;BME280;8513;42.662;23.350;2022-10-31T12:57:47;95410.72;;;44.94;7.34
16793;BME280;8513;42.662;23.350;2022-10-31T13:00:17;95404.44;;;44.61;7.14
16793;BME280;8513;42.662;23.350;2022-10-31T13:03:00;95403.97;;;42.43;8.69
16793;BME280;8513;42.662;23.350;2022-10-31T13:05:37;95395.41;;;40.19;10.26
16793;BME280;8513;42.662;23.350;2022-10-31T13:10:47;95402.91;;;42.60;8.89
16793;BME280;8513;42.662;23.350;2022-10-31T13:13:18;95400.81;;;44.10;7.89
16793;BME280;8513;42.662;23.350;2022-10-31T13:15:58;95410.09;;;43.42;7.88
16793;BME280;8513;42.662;23.350;2022-10-31T13:21:26;95411.34;;;43.16;8.11
16793;BME280;8513;42.662;23.350;2022-10-31T13:23:52;95406.00;;;43.23;8.30
16793;BME280;8513;42.662;23.350;2022-10-31T13:26:57;95408.84;;;42.99;8.60
16793;BME280;8513;42.662;23.350;2022-10-31T13:29:33;95398.91;;;40.37;9.89
16793;BME280;8513;42.662;23.350;2022-10-31T13:32:05;95388.63;;;35.39;14.17
16793;BME280;8513;42.662;23.350;2022-10-31T13:34:39;95396.63;;;32.71;16.43
16793;BME280;8513;42.662;23.350;2022-10-31T13:45:21;95389.88;;;28.65;21.64
16793;BME280;8513;42.662;23.350;2022-10-31T13:50:42;95397.25;;;27.37;23.84
16793;BME280;8513;42.662;23.350;2022-10-31T13:53:12;95401.94;;;27.47;23.26
16793;BME280;8513;42.662;23.350;2022-10-31T13:55:42;95396.81;;;27.28;24.23
16793;BME280;8513;42.662;23.350;2022-10-31T13:58:23;95394.94;;;27.12;24.55
16793;BME280;8513;42.662;23.350;2022-10-31T14:03:38;95396.66;;;26.84;24.59
16793;BME280;8513;42.662;23.350;2022-10-31T14:06:05;95392.97;;;26.91;24.70
16793;BME280;8513;42.662;23.350;2022-10-31T14:08:34;95392.31;;;26.83;24.77
16793;BME280;8513;42.662;23.350;2022-10-31T14:11:01;95397.38;;;26.34;25.19
16793;BME280;8513;42.662;23.350;2022-10-31T14:13:34;95395.06;;;26.55;25.08
16793;BME280;8513;42.662;23.350;2022-10-31T14:16:17;95395.75;;;26.79;24.55
16793;BME280;8513;42.662;23.350;2022-10-31T14:18:48;95399.16;;;26.57;24.91
16793;BME280;8513;42.662;23.350;2022-10-31T14:21:27;95402.09;;;28.18;22.93
16793;BME280;8513;42.662;23.350;2022-10-31T14:23:54;95405.75;;;31.30;18.91
16793;BME280;8513;42.662;23.350;2022-10-31T14:28:52;95409.03;;;33.27;16.45
16793;BME280;8513;42.662;23.350;2022-10-31T14:31:37;95409.72;;;33.08;16.55
16793;BME280;8513;42.662;23.350;2022-10-31T14:34:43;95403.34;;;31.18;19.02
16793;BME280;8513;42.662;23.350;2022-10-31T14:40:18;95401.97;;;28.57;22.08
16793;BME280;8513;42.662;23.350;2022-10-31T14:46:15;95402.72;;;26.06;25.91
16793;BME280;8513;42.662;23.350;2022-10-31T14:49:01;95408.28;;;25.87;26.05
16793;BME280;8513;42.662;23.350;2022-10-31T14:51:36;95407.88;;;25.32;27.58
16793;BME280;8513;42.662;23.350;2022-10-31T14:54:05;95403.28;;;24.97;28.26
16793;BME280;8513;42.662;23.350;2022-10-31T14:56:46;95403.13;;;24.80;28.12
16793;BME280;8513;42.662;23.350;2022-10-31T14:59:14;95402.72;;;24.53;28.78
16793;BME280;8513;42.662;23.350;2022-10-31T15:01:52;95406.63;;;24.38;29.11
16793;BME280;8513;42.662;23.350;2022-10-31T15:04:22;95411.41;;;24.06;30.00
16793;BME280;8513;42.662;23.350;2022-10-31T15:07:18;95415.31;;;23.48;31.07
16793;BME280;8513;42.662;23.350;2022-10-31T15:09:55;95409.75;;;23.06;32.36
16793;BME280;8513;42.662;23.350;2022-10-31T15:12:25;95410.84;;;22.99;32.40
16793;BME280;8513;42.662;23.350;2022-10-31T15:14:51;95409.19;;;22.98;32.59
16793;BME280;8513;42.662;23.350;2022-10-31T15:17:18;95413.69;;;23.04;32.88